Main page
METAR-TAF:

METAR-TAF

Airports :

Béziers, France

Béziers Cap d'Agde Airport

latitude: 43-19N, longitude: 003-21E, elevation: 17 m

Current weather observation

The report was made 18 minutes ago, at 16:30 UTC
Wind 8 kt from the South, varying between Southeast and South/Southwest
Temperature 25°C
Humidity 69%
Pressure 1014 hPa
Visibility 10 km or more
no clouds below 1500 m and no cumulonimbus

METAR: LFMU 221630Z AUTO 17008KT 130V200 CAVOK 25/19 Q1014 NOSIG

Time: 18:48 (16:48 UTC)

Forecast

The report was made 2 hours and 48 minutes ago, at 14:00 UTC
Forecast valid from 22 at 15 UTC to 23 at 15 UTC
Wind 10 kt from the South
Visibility 10 km or more
no clouds below 1500 m and no cumulonimbus
Temporary
from 22 at 19 UTC to 23 at 03 UTC
Wind 5 kt from variable directions
Becoming
from 23 at 03 UTC to 23 at 06 UTC
Wind 10 kt from the Northwest

TAF: LFMU 221400Z 2215/2315 17010KT CAVOK TEMPO 2219/2303 VRB05KT BECMG 2303/2306 31010KT

Weather observations and forecasts of more than 4000 airports (METAR and TAF reports).

The available stations are represented by yellow and red dots on the map.

Hover mouse over dot to see the name of the station.

Then click to see weather observations and forecasts.

To change the map : click on the green buttons with a black cross to zoom in, on the green button with a dash to zoom out, or on the green arrows for adjacent maps.


METAR-TAF: